Time;durP1;ratioP1;P1;durP2;ratioP2;P2;SDS_P1;SDS_P2;PMS_P1;PMS_P2;Temp;Humidity;BMP_temperature;BMP_pressure;BME280_temperature;BME280_humidity;BME280_pressure;Samples;Min_cycle;Max_cycle;Signal;HPM_P1;HPM_P2
2022/12/22 03:27:30;;;;;;;3.47;2.65;;;;;;;1.72;78.37;99112.88;4843897;29;20561;-77
2022/12/22 03:29:56;;;;;;;5.57;2.90;;;;;;;1.53;78.57;99075.78;4828905;29;20147;-79
2022/12/22 03:32:22;;;;;;;4.63;2.60;;;;;;;1.61;78.36;99092.19;4861560;29;20050;-80
2022/12/22 03:34:48;;;;;;;4.15;2.92;;;;;;;1.44;78.65;99063.69;4856972;29;20069;-78
2022/12/22 03:37:14;;;;;;;6.15;2.90;;;;;;;1.77;78.64;99104.41;4844398;29;20068;-79
2022/12/22 03:39:40;;;;;;;6.40;3.35;;;;;;;1.63;78.45;99077.69;4843824;29;20073;-81
2022/12/22 03:47:38;;;;;;;4.13;2.88;;;;;;;1.78;78.42;99092.41;4859753;29;20049;-80
2022/12/22 03:50:05;;;;;;;7.18;3.80;;;;;;;1.81;78.24;99095.03;4859756;29;20045;-78
2022/12/22 03:52:31;;;;;;;4.80;3.28;;;;;;;1.82;78.63;99090.78;4871671;29;20056;-79
2022/12/22 03:54:59;;;;;;;6.22;3.63;;;;;;;1.68;78.19;99070.03;4861961;29;20056;-80
2022/12/22 03:57:26;;;;;;;4.95;3.45;;;;;;;1.78;78.36;99087.28;4880799;29;20101;-79
2022/12/22 03:59:51;;;;;;;5.45;3.70;;;;;;;1.85;78.79;99094.25;4835101;29;20093;-79
2022/12/22 04:02:17;;;;;;;4.90;3.38;;;;;;;1.84;78.68;99097.66;4863097;29;20402;-81
2022/12/22 04:04:44;;;;;;;5.55;3.45;;;;;;;1.47;78.36;99030.41;4862261;29;20535;-79
2022/12/22 04:07:10;;;;;;;6.43;4.07;;;;;;;1.82;78.90;99088.22;4862312;29;20045;-80
2022/12/22 04:12:53;;;;;;;5.82;3.70;;;;;;;1.84;78.39;99095.09;4862802;29;20446;-79
2022/12/22 04:15:09;;;;;;;6.80;3.92;;;;;;;1.87;78.80;99084.03;4861615;29;20045;-81
2022/12/22 04:17:35;;;;;;;5.75;4.15;;;;;;;1.89;78.52;99087.44;4878375;29;20201;-77
2022/12/22 04:20:08;;;;;;;6.43;4.10;;;;;;;1.91;78.22;99096.03;4846273;29;20041;-79
2022/12/22 04:22:35;;;;;;;7.90;4.30;;;;;;;1.53;78.57;99043.34;4846084;29;20045;-80
2022/12/22 04:25:01;;;;;;;8.35;4.25;;;;;;;1.87;78.49;99089.16;4831281;29;20071;-80
2022/12/22 04:27:28;;;;;;;6.45;4.32;;;;;;;1.80;78.46;99080.47;4848377;29;20056;-80
2022/12/22 04:29:54;;;;;;;8.88;5.45;;;;;;;1.88;78.66;99084.03;4882140;29;20045;-80
2022/12/22 04:32:20;;;;;;;9.23;4.95;;;;;;;1.66;78.46;99057.19;4849855;29;20501;-81
2022/12/22 04:34:46;;;;;;;9.73;4.90;;;;;;;1.89;78.64;99092.59;4849599;29;20040;-79
2022/12/22 04:37:12;;;;;;;7.70;4.88;;;;;;;1.63;78.37;99041.78;4849564;29;20584;-78
2022/12/22 04:39:38;;;;;;;9.35;5.25;;;;;;;1.86;78.31;99084.88;4864474;29;20120;-79
2022/12/22 04:42:04;;;;;;;8.82;5.03;;;;;;;1.53;78.37;99016.81;4864619;29;20033;-79
2022/12/22 04:44:31;;;;;;;10.88;5.60;;;;;;;1.76;78.45;99066.75;4849573;29;20072;-79
2022/12/22 04:47:04;;;;;;;9.30;5.60;;;;;;;1.73;78.51;99060.72;4867797;29;20045;-80
2022/12/22 04:49:37;;;;;;;10.05;5.53;;;;;;;1.63;78.78;99064.84;4848167;29;20072;-79
2022/12/22 04:52:03;;;;;;;9.30;5.35;;;;;;;1.70;78.61;99079.47;4873162;29;20074;-78
2022/12/22 04:54:29;;;;;;;9.15;5.35;;;;;;;1.81;78.57;99092.47;4863076;29;20049;-79
2022/12/22 04:56:55;;;;;;;12.10;5.63;;;;;;;1.60;78.67;99062.25;4845923;29;20076;-79
2022/12/22 04:59:25;;;;;;;12.52;5.93;;;;;;;1.60;78.49;99072.50;4845867;29;20131;-79
2022/12/22 05:01:51;;;;;;;8.90;5.47;;;;;;;1.84;78.79;99107.91;4830656;29;20037;-79
2022/12/22 05:04:17;;;;;;;11.20;5.43;;;;;;;1.84;78.64;99107.06;4863100;29;20525;-81
2022/12/22 05:06:50;;;;;;;9.45;5.65;;;;;;;1.72;78.70;99093.19;4847040;29;20481;-80
2022/12/22 05:09:16;;;;;;;9.48;6.28;;;;;;;1.73;78.70;99084.66;4832464;29;20164;-79
2022/12/22 05:11:42;;;;;;;12.07;6.60;;;;;;;1.80;78.74;99086.50;4830634;29;20344;-79
2022/12/22 05:14:08;;;;;;;10.65;5.78;;;;;;;1.83;78.71;99100.22;4846319;29;20037;-81
2022/12/22 05:16:34;;;;;;;9.45;6.07;;;;;;;1.76;78.39;99092.41;4846111;29;20140;-79
2022/12/22 05:19:00;;;;;;;11.60;6.00;;;;;;;1.70;78.78;99087.19;4831550;29;20045;-79
2022/12/22 05:21:26;;;;;;;10.32;6.25;;;;;;;1.83;78.48;99106.19;4863825;29;20144;-78
2022/12/22 05:23:52;;;;;;;12.32;6.70;;;;;;;1.63;78.50;99077.69;4847688;29;20073;-79
2022/12/22 05:26:19;;;;;;;11.23;6.57;;;;;;;1.82;78.72;99112.16;4863002;29;20041;-83
2022/12/22 05:28:46;;;;;;;13.27;7.10;;;;;;;1.46;78.56;99065.44;4846397;29;20114;-80
2022/12/22 05:31:21;;;;;;;13.23;7.20;;;;;;;1.47;78.84;99079.13;4846061;29;20049;-81
2022/12/22 05:33:48;;;;;;;16.10;7.40;;;;;;;1.78;78.55;99139.47;4830590;29;20045;-77
2022/12/22 05:36:14;;;;;;;12.43;7.55;;;;;;;1.42;78.75;99081.63;4846944;29;20089;-81
2022/12/22 05:38:41;;;;;;;13.23;7.75;;;;;;;1.13;78.41;99035.84;4837149;29;20045;-80
2022/12/22 05:41:07;;;;;;;15.02;8.30;;;;;;;1.33;78.56;99076.34;4832462;29;20144;-81
2022/12/22 05:43:34;;;;;;;16.23;8.38;;;;;;;1.71;78.60;99141.94;4846741;29;20042;-81
2022/12/22 05:46:09;;;;;;;18.60;8.52;;;;;;;1.73;78.81;99147.94;4835426;29;20064;-80
2022/12/22 05:48:37;;;;;;;16.65;8.90;;;;;;;1.64;78.67;99120.44;4848558;29;20056;-78
2022/12/22 05:51:10;;;;;;;15.88;8.40;;;;;;;1.14;78.44;99049.50;4882144;29;20038;-81
2022/12/22 05:53:37;;;;;;;15.60;8.18;;;;;;;1.32;78.47;99074.59;4868825;29;20158;-79
2022/12/22 05:56:04;;;;;;;16.83;8.85;;;;;;;1.72;78.55;99152.19;4884387;29;20041;-78
2022/12/22 05:58:30;;;;;;;14.65;8.52;;;;;;;1.51;78.76;99098.84;4853666;29;20021;-80
2022/12/22 06:00:58;;;;;;;16.92;8.50;;;;;;;1.63;78.55;99117.00;4885787;29;20052;-79
2022/12/22 06:03:28;;;;;;;16.33;8.35;;;;;;;1.77;78.65;99144.56;4882661;29;20160;-77
2022/12/22 06:05:54;;;;;;;17.65;9.95;;;;;;;1.26;78.82;99060.00;4877974;29;20101;-78
2022/12/22 06:08:21;;;;;;;15.57;9.15;;;;;;;1.31;78.64;99065.19;4846903;29;20052;-80
2022/12/22 06:10:48;;;;;;;16.40;8.93;;;;;;;1.44;78.48;99092.75;4869499;29;21062;-78
2022/12/22 06:13:15;;;;;;;17.05;8.63;;;;;;;1.64;78.69;99120.44;4898916;29;20045;-80
2022/12/22 06:15:41;;;;;;;16.98;8.57;;;;;;;1.72;78.72;99144.50;4866736;29;20045;-80
2022/12/22 06:18:07;;;;;;;15.57;8.80;;;;;;;1.70;79.02;99129.94;4865839;29;20048;-78
2022/12/22 06:20:33;;;;;;;13.25;8.45;;;;;;;1.62;78.40;99119.56;4867058;29;20065;-77
2022/12/22 06:22:59;;;;;;;17.80;9.38;;;;;;;1.77;78.57;99145.44;4881172;29;20552;-77
2022/12/22 06:25:25;;;;;;;16.50;8.90;;;;;;;1.68;78.79;99121.34;4898879;29;20055;-75
2022/12/22 06:27:52;;;;;;;16.40;9.43;;;;;;;1.67;78.58;99129.88;4869182;29;20041;-80
2022/12/22 06:30:18;;;;;;;16.77;9.07;;;;;;;1.85;78.76;99149.84;4883561;29;20503;-79
2022/12/22 06:32:44;;;;;;;14.52;8.15;;;;;;;1.80;78.34;99147.19;4867505;29;20132;-79
2022/12/22 06:35:12;;;;;;;14.93;8.85;;;;;;;1.82;78.36;99145.50;4881474;29;20068;-80
2022/12/22 06:37:39;;;;;;;18.33;9.50;;;;;;;1.75;78.89;99124.03;4864595;29;20049;-79
2022/12/22 06:40:06;;;;;;;16.45;9.32;;;;;;;1.72;78.55;99118.84;4881752;29;20112;-78
2022/12/22 06:45:19;;;;;;;13.63;8.70;;;;;;;1.54;78.32;99091.22;4876977;29;20057;-82
2022/12/22 06:47:48;;;;;;;16.55;8.63;;;;;;;1.83;78.45;99144.69;4858090;29;20045;-79
2022/12/22 06:50:14;;;;;;;15.55;8.68;;;;;;;1.73;78.24;99127.41;4890510;29;20450;-79
2022/12/22 06:52:42;;;;;;;14.50;8.75;;;;;;;1.45;78.43;99073.97;4864354;29;20049;-79
2022/12/22 06:55:08;;;;;;;16.42;9.25;;;;;;;1.71;78.63;99112.00;4877103;29;20049;-79
2022/12/22 06:57:34;;;;;;;15.85;8.88;;;;;;;1.77;78.28;99119.78;4860101;29;20053;-78
2022/12/22 07:00:01;;;;;;;15.25;8.02;;;;;;;1.98;78.46;99140.66;4855112;29;20037;-79
2022/12/22 07:02:33;;;;;;;16.80;9.00;;;;;;;1.99;78.56;99150.91;4851447;29;20398;-80
2022/12/22 07:05:02;;;;;;;13.73;8.55;;;;;;;1.94;78.35;99130.31;4834868;29;20148;-83
2022/12/22 07:07:29;;;;;;;14.60;8.05;;;;;;;2.00;78.63;99144.94;4853577;29;20049;-77
2022/12/22 07:09:55;;;;;;;18.02;9.25;;;;;;;2.02;78.31;99152.66;4827703;29;20527;-79
2022/12/22 07:12:25;;;;;;;16.75;8.40;;;;;;;2.03;78.23;99154.38;4843715;29;20049;-79
2022/12/22 07:14:51;;;;;;;14.93;8.57;;;;;;;1.94;78.24;99132.91;4843734;29;20045;-80
2022/12/22 07:17:17;;;;;;;14.93;9.05;;;;;;;1.98;78.16;99141.50;4829708;29;20578;-79
2022/12/22 07:19:43;;;;;;;14.50;8.38;;;;;;;1.88;78.40;99129.34;4874204;29;20463;-80
2022/12/22 07:22:10;;;;;;;13.57;8.57;;;;;;;2.05;78.07;99160.41;4858520;29;20056;-78
2022/12/22 07:24:36;;;;;;;17.70;8.43;;;;;;;1.96;78.32;99135.47;4860002;29;20041;-82
2022/12/22 07:27:02;;;;;;;17.27;8.20;;;;;;;2.14;78.14;99154.53;4862941;29;20049;-81
2022/12/22 07:29:29;;;;;;;14.40;8.07;;;;;;;2.18;78.42;99164.03;4880158;29;20112;-81
2022/12/22 07:31:55;;;;;;;16.38;9.10;;;;;;;1.75;78.26;99071.88;4848235;29;20033;-81
2022/12/22 07:34:24;;;;;;;14.00;8.23;;;;;;;2.20;78.32;99147.81;4862790;29;20057;-82
2022/12/22 07:36:50;;;;;;;15.10;8.35;;;;;;;1.91;77.91;99096.91;4877094;29;20083;-80
2022/12/22 07:39:20;;;;;;;14.80;8.45;;;;;;;2.24;77.77;99151.28;4883331;29;20018;-80
2022/12/22 07:44:37;;;;;;;13.73;7.95;;;;;;;2.14;77.68;99136.56;4866477;29;20037;-80
2022/12/22 07:47:06;;;;;;;17.85;10.45;;;;;;;1.58;77.74;99051.94;4836235;29;20045;-78
2022/12/22 07:52:18;;;;;;;15.80;8.98;;;;;;;2.29;78.02;99148.78;4880269;29;20047;-80
2022/12/22 07:54:44;;;;;;;14.00;8.68;;;;;;;2.22;78.07;99129.88;4871232;29;20049;-80
2022/12/22 07:57:10;;;;;;;13.23;7.95;;;;;;;2.29;77.88;99141.06;4888537;29;20048;-79
2022/12/22 07:59:35;;;;;;;12.40;8.25;;;;;;;2.10;77.54;99117.72;4876214;29;20078;-81
2022/12/22 08:02:01;;;;;;;14.95;8.48;;;;;;;2.39;77.85;99156.63;4866026;29;20501;-81
2022/12/22 08:04:27;;;;;;;15.98;8.68;;;;;;;2.24;77.53;99125.63;4868062;29;20083;-81
2022/12/22 08:06:53;;;;;;;15.75;8.98;;;;;;;2.16;77.78;99104.97;4852869;29;20044;-80
2022/12/22 08:09:21;;;;;;;15.02;8.60;;;;;;;2.39;77.70;99132.66;4852263;29;20045;-78
2022/12/22 08:11:48;;;;;;;14.52;8.73;;;;;;;2.54;77.49;99148.28;4867289;29;20093;-80
2022/12/22 08:14:14;;;;;;;14.73;8.70;;;;;;;2.40;77.56;99131.81;4852711;29;20505;-81
2022/12/22 08:16:40;;;;;;;13.90;8.45;;;;;;;2.40;77.16;99126.69;4852665;29;20049;-80
2022/12/22 08:19:06;;;;;;;15.30;8.95;;;;;;;2.45;77.48;99142.16;4884344;29;20079;-81
2022/12/22 08:21:32;;;;;;;16.50;8.82;;;;;;;2.24;77.03;99121.31;4853772;29;20068;-81
2022/12/22 08:23:58;;;;;;;15.85;8.82;;;;;;;2.23;77.14;99111.91;4867013;29;20476;-80
2022/12/22 08:26:35;;;;;;;13.18;8.65;;;;;;;2.43;77.73;99143.84;4866975;29;20547;-78
2022/12/22 08:29:17;;;;;;;16.60;9.40;;;;;;;2.40;77.08;99140.38;4837378;29;20041;-79
2022/12/22 08:31:44;;;;;;;;;;;;;;;2.49;77.05;99155.06;4879780;29;20045;-81
2022/12/22 08:34:14;;;;;;;18.00;8.35;;;;;;;2.16;77.17;99104.09;4862356;29;19927;-85
2022/12/22 08:36:45;;;;;;;13.90;8.15;;;;;;;2.21;77.07;99117.88;4833308;29;20099;-82
2022/12/22 08:39:12;;;;;;;15.77;8.75;;;;;;;1.79;76.67;99076.19;4866588;29;20037;-83
2022/12/22 08:41:52;;;;;;;15.70;9.48;;;;;;;2.23;76.95;99136.72;4840147;29;20052;-85
2022/12/22 08:44:28;;;;;;;15.18;9.00;;;;;;;2.45;77.27;99170.41;4865369;29;20045;-84
2022/12/22 08:46:56;;;;;;;14.45;8.95;;;;;;;1.80;77.35;99059.94;4834528;29;20077;-82
2022/12/22 08:49:23;;;;;;;14.07;8.43;;;;;;;2.17;77.17;99122.09;4882705;29;20047;-84
2022/12/22 08:51:49;;;;;;;17.80;8.85;;;;;;;2.18;76.99;99108.44;4837095;29;20048;-81
2022/12/22 08:54:16;;;;;;;15.73;8.63;;;;;;;2.10;77.07;99097.19;4851948;29;20505;-81
2022/12/22 08:56:43;;;;;;;15.55;8.70;;;;;;;2.46;76.96;99154.16;4872512;29;20070;-82
2022/12/22 08:59:10;;;;;;;15.50;9.02;;;;;;;1.85;77.05;99058.31;4861038;29;20037;-83
2022/12/22 09:01:38;;;;;;;16.88;9.65;;;;;;;2.44;76.84;99146.41;4846008;29;20070;-83
2022/12/22 09:04:05;;;;;;;14.60;8.63;;;;;;;2.24;76.90;99115.34;4860854;29;20084;-83
2022/12/22 09:06:40;;;;;;;15.00;8.48;;;;;;;2.47;76.65;99167.00;4831864;29;20057;-83
2022/12/22 09:09:11;;;;;;;14.73;8.98;;;;;;;2.02;77.04;99075.66;4832770;29;20043;-83
2022/12/22 09:11:39;;;;;;;16.40;8.52;;;;;;;1.83;76.78;99051.47;4832293;29;20075;-85
2022/12/22 09:14:06;;;;;;;13.82;8.27;;;;;;;1.82;76.23;99029.22;4832304;29;20155;-83
2022/12/22 09:16:33;;;;;;;14.45;8.07;;;;;;;2.44;76.40;99138.72;4847570;29;20049;-85
2022/12/22 09:19:01;;;;;;;14.75;8.90;;;;;;;2.31;76.60;99127.44;4858759;29;20064;-81
2022/12/22 09:21:28;;;;;;;14.02;8.93;;;;;;;2.32;76.63;99136.00;4867858;29;20044;-81
2022/12/22 09:23:55;;;;;;;13.68;8.95;;;;;;;2.16;76.10;99104.97;4852033;29;20056;-83
2022/12/22 09:26:24;;;;;;;16.50;8.35;;;;;;;1.99;76.90;99084.19;4837256;29;20063;-80
2022/12/22 09:28:51;;;;;;;13.80;8.50;;;;;;;1.35;76.27;98984.94;4850027;29;20501;-83
2022/12/22 09:31:26;;;;;;;18.15;9.20;;;;;;;1.19;76.83;98956.50;4864916;29;20040;-85
2022/12/22 09:34:04;;;;;;;18.38;9.65;;;;;;;1.46;76.45;99021.00;4865248;29;20116;-82
2022/12/22 09:36:30;;;;;;;14.82;9.30;;;;;;;2.26;76.92;99145.31;4866000;29;20407;-85
2022/12/22 09:38:57;;;;;;;15.32;9.27;;;;;;;2.40;76.37;99153.22;4866947;29;20049;-81
2022/12/22 09:41:33;;;;;;;17.48;9.23;;;;;;;2.44;76.41;99155.84;4867346;29;20041;-86
2022/12/22 09:44:05;;;;;;;16.70;8.90;;;;;;;1.55;76.54;99020.25;4887929;29;20072;-87
2022/12/22 09:46:36;;;;;;;20.38;9.18;;;;;;;1.99;76.56;99068.78;4874772;29;20104;-84
2022/12/22 09:49:16;;;;;;;18.42;9.95;;;;;;;1.14;76.76;98940.19;4864783;29;20048;-85
2022/12/22 09:51:55;;;;;;;15.70;8.75;;;;;;;1.93;76.43;99073.81;4858277;29;20042;-87
2022/12/22 09:54:25;;;;;;;16.77;9.65;;;;;;;2.14;76.48;99110.91;4831204;29;20045;-83
2022/12/22 09:56:55;;;;;;;20.40;9.82;;;;;;;1.95;76.29;99082.41;4846386;29;20041;-83
2022/12/22 09:59:29;;;;;;;16.77;9.15;;;;;;;1.71;76.23;99041.88;4832481;29;20049;-86
2022/12/22 10:02:20;;;;;;;16.67;9.48;;;;;;;2.43;76.56;99154.13;4834685;29;20041;-88
2022/12/22 10:05:00;;;;;;;15.73;8.95;;;;;;;2.53;76.39;99168.81;4830964;29;20105;-86
2022/12/22 10:07:53;;;;;;;18.00;9.82;;;;;;;1.86;76.47;99070.31;4835065;29;20053;-86
2022/12/22 10:10:23;;;;;;;;;;;;;;;2.53;75.99;99168.81;4833842;29;20052;-86
2022/12/22 10:13:21;;;;;;;18.08;8.73;;;;;;;1.43;76.62;98985.03;4832709;29;19924;-81
2022/12/22 10:15:52;;;;;;;18.67;9.35;;;;;;;2.58;76.61;99162.00;4830390;29;20077;-78
2022/12/22 10:18:28;;;;;;;17.70;9.13;;;;;;;2.19;76.76;99097.31;4850058;29;20040;-82
2022/12/22 10:21:10;;;;;;;16.42;9.40;;;;;;;2.63;75.95;99175.78;4864741;29;20052;-81
2022/12/22 10:24:21;;;;;;;15.32;9.25;;;;;;;1.74;75.97;99037.66;4850907;29;20053;-82
2022/12/22 10:27:01;;;;;;;15.10;8.73;;;;;;;1.35;75.98;98961.84;4884787;29;20045;-83
2022/12/22 10:30:01;;;;;;;16.50;9.05;;;;;;;1.28;75.77;98972.84;4865798;29;20517;-81
2022/12/22 10:33:37;;;;;;;18.52;9.57;;;;;;;1.19;76.14;98948.81;4852278;29;20049;-82
2022/12/22 10:36:07;;;;;;;16.73;9.57;;;;;;;2.16;76.70;99089.56;4862895;29;20588;-83
2022/12/22 10:39:37;;;;;;;17.55;10.05;;;;;;;2.64;75.85;99156.97;4833477;24;20061;-84
2022/12/22 10:42:17;;;;;;;16.48;9.88;;;;;;;1.96;76.26;99053.34;4780583;29;20043;-82
2022/12/22 10:44:52;;;;;;;19.40;9.63;;;;;;;1.44;75.41;98979.06;4843770;29;20064;-85
2022/12/22 10:47:22;;;;;;;17.90;9.50;;;;;;;2.69;75.92;99162.16;4843264;29;20045;-83
2022/12/22 10:49:51;;;;;;;18.88;9.93;;;;;;;2.71;75.94;99163.03;4843010;29;20045;-84
2022/12/22 10:52:22;;;;;;;16.02;9.13;;;;;;;2.73;76.13;99163.06;4827583;29;20042;-84
2022/12/22 10:54:48;;;;;;;19.63;9.75;;;;;;;2.60;75.96;99141.50;4828107;29;20121;-85
2022/12/22 10:57:17;;;;;;;17.42;10.32;;;;;;;2.79;75.48;99158.00;4844884;29;20467;-79
2022/12/22 10:59:52;;;;;;;19.02;10.50;;;;;;;2.81;75.78;99166.59;4852802;29;20060;-80
2022/12/22 11:02:39;;;;;;;19.02;10.00;;;;;;;2.83;75.53;99164.91;4846236;29;20093;-82
2022/12/22 11:05:10;;;;;;;21.20;10.45;;;;;;;2.82;75.65;99176.03;4851165;29;20064;-83
2022/12/22 11:07:48;;;;;;;19.45;10.52;;;;;;;2.28;76.20;99068.34;4845358;29;20064;-80
2022/12/22 11:10:27;;;;;;;22.13;10.10;;;;;;;2.93;75.24;99176.16;4832412;29;20046;-82
2022/12/22 11:13:20;;;;;;;17.58;9.85;;;;;;;2.94;75.45;99177.88;4834740;29;20057;-83
2022/12/22 11:16:13;;;;;;;19.75;10.32;;;;;;;2.01;75.25;99017.47;4823607;29;20479;-81
2022/12/22 11:19:19;;;;;;;19.80;10.18;;;;;;;2.90;75.45;99169.28;4844872;29;20094;-82
2022/12/22 11:22:35;;;;;;;19.08;10.63;;;;;;;2.86;75.78;99163.25;4831126;29;20073;-84
2022/12/22 11:25:30;;;;;;;19.98;10.48;;;;;;;2.32;75.20;99085.47;4849005;29;20132;-83
2022/12/22 11:28:19;;;;;;;17.85;10.65;;;;;;;2.92;75.14;99170.16;4844896;29;20077;-85
2022/12/22 11:31:10;;;;;;;21.92;10.63;;;;;;;2.89;75.29;99175.25;4829479;29;20594;-85
2022/12/22 11:34:04;;;;;;;20.23;11.30;;;;;;;2.88;75.55;99178.69;4843769;29;20472;-82
2022/12/22 11:37:05;;;;;;;;;;;;;;;;;;;;;
2022/12/22 11:39:59;;;;;;;23.00;11.50;;;;;;;1.44;74.79;98954.28;4843541;29;20061;-82
2022/12/22 11:43:04;;;;;;;18.30;10.43;;;;;;;2.80;75.31;99180.28;4831893;29;20041;-82
2022/12/22 11:46:22;;;;;;;19.58;10.35;;;;;;;2.07;75.01;99049.25;4836949;29;20422;-81
2022/12/22 11:49:09;;;;;;;;;;;;;;;2.82;75.07;99181.16;4828048;29;20054;-82
2022/12/22 11:52:12;;;;;;;20.88;11.23;;;;;;;2.80;75.70;99191.44;4828970;29;19924;-81
2022/12/22 11:55:08;;;;;;;24.35;10.63;;;;;;;1.97;75.38;99057.63;4825648;29;20050;-82
2022/12/22 11:58:01;;;;;;;19.40;11.00;;;;;;;1.20;75.33;98930.03;4841119;29;20514;-83
2022/12/22 12:08:35;;;;;;;;;;;;;;;;;;;;;
2022/12/22 12:11:42;;;;;;;19.20;10.63;;;;;;;2.62;75.51;99201.47;4845717;29;20042;-82
2022/12/22 12:15:15;;;;;;;22.55;11.02;;;;;;;1.79;75.22;99078.75;4824141;29;20065;-84
2022/12/22 12:18:29;;;;;;;22.70;10.82;;;;;;;2.55;75.67;99205.63;4795361;29;20454;-80
2022/12/22 12:21:20;;;;;;;24.67;11.18;;;;;;;2.48;75.38;99198.72;4795781;29;20171;-82
2022/12/22 12:24:20;;;;;;;21.30;11.10;;;;;;;1.32;75.55;99016.53;4825410;29;20149;-80
2022/12/22 12:27:18;;;;;;;23.67;11.68;;;;;;;2.38;75.69;99183.16;4794460;29;20094;-83
2022/12/22 12:30:17;;;;;;;22.45;11.40;;;;;;;2.59;75.83;99207.41;4783098;29;20094;-83
2022/12/22 12:33:21;;;;;;;23.77;11.27;;;;;;;1.88;75.60;99090.84;4810182;29;20083;-82
2022/12/22 12:36:15;;;;;;;21.38;11.65;;;;;;;2.67;75.38;99204.94;4787020;29;20130;-83
2022/12/22 12:39:17;;;;;;;22.52;11.60;;;;;;;2.64;75.37;99215.22;4792242;29;20574;-84
2022/12/22 12:41:46;;;;;;;;;;;;;;;2.62;75.33;99212.59;4790216;29;20438;-81
2022/12/22 12:44:44;;;;;;;23.08;11.63;;;;;;;1.24;75.18;99010.41;4793788;29;20027;-83
2022/12/22 12:47:22;;;;;;;26.13;11.77;;;;;;;2.20;75.66;99164.91;4793275;29;20058;-82
2022/12/22 12:50:37;;;;;;;24.63;11.82;;;;;;;2.60;75.87;99219.41;4800435;29;20484;-83
2022/12/22 12:53:19;;;;;;;20.45;11.77;;;;;;;2.09;75.30;99142.53;4828742;29;20050;-84
2022/12/22 12:55:49;;;;;;;21.50;11.57;;;;;;;2.58;75.63;99218.53;4826759;29;20046;-83
2022/12/22 12:58:34;;;;;;;23.17;12.32;;;;;;;2.58;75.64;99226.22;4810388;29;20046;-84
2022/12/22 13:01:35;;;;;;;23.83;11.50;;;;;;;1.78;75.89;99100.13;4826248;29;20049;-82
2022/12/22 13:04:40;;;;;;;20.38;10.63;;;;;;;2.26;75.59;99180.41;4792327;29;20053;-81
2022/12/22 13:07:07;;;;;;;23.00;11.43;;;;;;;1.69;75.20;99097.44;4811895;29;20038;-85
2022/12/22 13:09:33;;;;;;;22.15;10.98;;;;;;;2.24;75.65;99185.50;4811147;29;20150;-81
2022/12/22 13:12:39;;;;;;;22.67;11.23;;;;;;;1.97;76.01;99126.94;4827592;29;20073;-84
2022/12/22 13:15:38;;;;;;;20.67;10.15;;;;;;;2.15;75.36;99162.28;4815067;29;20061;-81
2022/12/22 13:18:24;;;;;;;20.20;10.40;;;;;;;2.58;75.71;99240.81;4814469;29;20041;-82
2022/12/22 13:21:24;;;;;;;23.38;11.40;;;;;;;2.64;76.20;99235.75;4846606;29;20042;-84
2022/12/22 13:23:57;;;;;;;22.20;10.77;;;;;;;2.66;75.72;99227.22;4819378;29;20061;-84
2022/12/22 13:31:20;;;;;;;23.17;10.30;;;;;;;2.71;75.93;99229.84;4830834;29;20091;-80
2022/12/22 13:34:09;;;;;;;19.75;10.13;;;;;;;1.98;75.35;99109.84;4846819;29;20658;-83
2022/12/22 13:37:07;;;;;;;;;;;;;;;;;;;;;
2022/12/22 13:39:39;;;;;;;24.25;11.23;;;;;;;1.83;75.26;99107.91;4868860;29;20061;-82
2022/12/22 13:42:16;;;;;;;25.52;11.88;;;;;;;2.44;75.72;99182.38;4843995;29;20052;-83
2022/12/22 13:44:46;;;;;;;21.35;11.02;;;;;;;1.58;75.51;99033.97;4834132;29;20049;-82
2022/12/22 13:52:25;;;;;;;29.13;12.10;;;;;;;1.46;75.16;99029.53;4841579;29;20072;-83
2022/12/22 14:35:57;;;;;;;27.58;13.50;;;;;;;2.70;75.49;99258.94;4849328;29;20049;-86
2022/12/22 14:39:40;;;;;;;35.13;13.40;;;;;;;1.92;75.76;99132.00;4798677;29;20071;-84
2022/12/22 14:42:58;;;;;;;29.83;12.27;;;;;;;2.24;75.42;99176.97;4812962;29;20098;-85
2022/12/22 14:45:35;;;;;;;31.77;13.60;;;;;;;1.93;74.80;99151.69;4765846;29;20051;-80
2022/12/22 15:06:53;;;;;;;25.83;12.18;;;;;;;2.66;75.26;99270.00;4693120;30;20081;-80
2022/12/22 15:09:33;;;;;;;29.48;13.10;;;;;;;1.45;75.23;99114.97;4692830;30;20068;-84
2022/12/22 15:13:28;;;;;;;;;;;;;;;;;;;;;
2022/12/22 15:16:50;;;;;;;32.67;13.95;;;;;;;2.51;75.73;99288.66;4706278;30;20080;-85
2022/12/22 15:19:58;;;;;;;30.27;13.88;;;;;;;2.47;75.73;99290.28;4699553;30;20122;-82
2022/12/22 15:36:15;;;;;;;26.58;11.25;;;;;;;2.53;76.18;99285.25;4783232;30;20058;-85
2022/12/22 15:40:00;;;;;;;;;;;;;;;;;;;;;
2022/12/22 15:53:53;;;;;;;;;;;;;;;;;;;;;
2022/12/22 16:06:14;;;;;;;;;;;;;;;;;;;;;
2022/12/22 16:09:44;;;;;;;18.15;8.60;;;;;;;2.61;75.83;99318.78;4758300;30;20095;-83
2022/12/22 16:16:42;;;;;;;;;;;;;;;;;;;;;
2022/12/22 16:23:41;;;;;;;25.85;11.45;;;;;;;1.78;75.45;99206.19;4745390;30;20404;-83
2022/12/22 16:40:39;;;;;;;;;;;;;;;;;;;;;
2022/12/22 16:44:07;;;;;;;;;;;;;;;;;;;;;
2022/12/22 16:47:16;;;;;;;;;;;;;;;;;;;;;
2022/12/22 16:51:04;;;;;;;16.52;8.45;;;;;;;1.86;75.29;99190.06;4736816;30;20048;-83
2022/12/22 16:53:50;;;;;;;14.18;8.18;;;;;;;1.45;75.74;99114.97;4799834;30;20047;-82
2022/12/22 16:56:58;;;;;;;16.05;8.77;;;;;;;1.28;75.46;99088.19;4794438;30;20424;-83
2022/12/22 16:59:35;;;;;;;14.25;7.55;;;;;;;1.13;75.32;99066.59;4795329;29;20191;-82
2022/12/22 17:03:16;;;;;;;;;;;;;;;;;;;;;
2022/12/22 17:07:57;;;;;;;11.38;6.35;;;;;;;2.65;75.51;99341.09;4790130;30;20143;-80
2022/12/22 17:11:38;;;;;;;;;;;;;;;;;;;;;
2022/12/22 17:15:59;;;;;;;;;;;;;;;;;;;;;
2022/12/22 17:41:43;;;;;;;14.18;7.63;;;;;;;1.53;74.93;99135.66;4786541;29;20278;-82
2022/12/22 17:44:28;;;;;;;10.95;6.40;;;;;;;2.71;75.07;99327.47;4778840;29;20067;-79
2022/12/22 17:50:50;;;;;;;12.68;7.40;;;;;;;2.08;74.72;99206.66;4717617;30;20078;-83
2022/12/22 17:53:36;;;;;;;13.20;7.13;;;;;;;1.73;74.95;99153.94;4739412;30;20149;-80
2022/12/22 18:17:44;;;;;;;15.35;8.23;;;;;;;1.79;74.00;99132.63;4735393;30;20063;-84
2022/12/22 18:21:41;;;;;;;15.20;8.70;;;;;;;3.11;75.10;99334.94;4687213;30;20056;-84
2022/12/22 18:29:00;;;;;;;13.55;8.10;;;;;;;3.19;74.71;99351.34;4643132;30;20086;-82
2022/12/22 18:31:36;;;;;;;17.00;8.73;;;;;;;3.24;74.33;99349.66;4670933;30;20110;-84
2022/12/22 18:34:28;;;;;;;21.40;9.70;;;;;;;1.87;74.07;99107.13;4697664;30;20098;-84
2022/12/22 18:36:54;;;;;;;19.38;9.45;;;;;;;2.34;74.41;99191.66;4710429;30;20747;-83
2022/12/22 18:39:25;;;;;;;20.17;9.45;;;;;;;2.79;73.94;99255.63;4696040;30;20131;-81
2022/12/22 18:42:02;;;;;;;22.30;10.30;;;;;;;2.81;74.34;99264.25;4746289;30;20059;-85
2022/12/22 18:44:28;;;;;;;20.55;9.60;;;;;;;2.84;74.30;99265.16;4773566;29;20050;-80
2022/12/22 18:46:54;;;;;;;18.33;9.00;;;;;;;2.67;74.32;99228.94;4810050;29;20100;-81
2022/12/22 18:49:21;;;;;;;19.60;9.65;;;;;;;3.31;74.60;99323.19;4792271;29;20049;-82
2022/12/22 18:51:47;;;;;;;17.67;9.02;;;;;;;3.31;74.43;99312.91;4780013;29;20523;-81
2022/12/22 18:54:35;;;;;;;19.55;10.40;;;;;;;3.41;74.36;99318.19;4771385;29;20087;-82
2022/12/22 18:57:25;;;;;;;19.23;11.02;;;;;;;3.03;73.87;99273.13;4778595;29;20057;-82
2022/12/22 18:59:54;;;;;;;22.55;12.40;;;;;;;2.68;74.45;99201.53;4821988;29;20111;-79
2022/12/22 19:02:35;;;;;;;20.90;12.75;;;;;;;2.76;73.73;99255.63;4794612;29;20042;-82
2022/12/22 19:05:15;;;;;;;21.48;12.40;;;;;;;3.28;74.03;99341.16;4805602;29;20062;-78
2022/12/22 19:07:48;;;;;;;21.52;13.20;;;;;;;2.17;73.82;99188.84;4798422;29;20038;-82
2022/12/22 19:10:20;;;;;;;26.83;14.35;;;;;;;2.44;73.60;99217.47;4829052;29;20053;-82
2022/12/22 19:13:00;;;;;;;23.00;13.27;;;;;;;2.43;73.69;99231.16;4782543;29;20411;-80
2022/12/22 19:15:29;;;;;;;26.73;14.23;;;;;;;1.91;74.05;99150.81;4828120;29;20049;-80
2022/12/22 19:18:28;;;;;;;26.20;14.98;;;;;;;1.98;74.03;99151.75;4793563;29;20046;-81
2022/12/22 19:21:26;;;;;;;26.48;13.50;;;;;;;2.36;74.12;99238.75;4772080;29;20142;-81
2022/12/22 19:23:53;;;;;;;24.20;12.40;;;;;;;2.27;73.59;99223.22;4791197;29;20120;-81
2022/12/22 19:26:41;;;;;;;23.73;11.95;;;;;;;1.95;73.51;99161.97;4807659;29;20047;-83
2022/12/22 19:29:30;;;;;;;;;;;;;;;;;;;;;
2022/12/22 19:32:24;;;;;;;18.95;9.93;;;;;;;2.41;73.65;99214.03;4809599;29;20072;-80
2022/12/22 19:35:42;;;;;;;15.82;8.93;;;;;;;2.08;73.50;99176.75;4782549;29;20046;-82
2022/12/22 19:38:25;;;;;;;15.52;8.45;;;;;;;2.62;73.43;99263.13;4767924;29;20059;-81
2022/12/22 19:40:54;;;;;;;15.57;8.33;;;;;;;2.42;73.68;99225.16;4807081;29;20051;-83